sensor_id;sensor_type;location;lat;lon;timestamp;P1;durP1;ratioP1;P2;durP2;ratioP2
55090;SDS011;40985;53.180;5.800;2023-08-12T00:01:49;6.40;;;3.13;;
55090;SDS011;40985;53.180;5.800;2023-08-12T00:04:14;6.07;;;3.50;;
55090;SDS011;40985;53.180;5.800;2023-08-12T00:06:41;6.22;;;3.33;;
55090;SDS011;40985;53.180;5.800;2023-08-12T00:09:07;5.57;;;3.05;;
55090;SDS011;40985;53.180;5.800;2023-08-12T00:11:36;3.88;;;2.80;;
55090;SDS011;40985;53.180;5.800;2023-08-12T00:14:02;5.05;;;3.05;;
55090;SDS011;40985;53.180;5.800;2023-08-12T00:16:27;7.18;;;2.88;;
55090;SDS011;40985;53.180;5.800;2023-08-12T00:18:53;5.60;;;3.35;;
55090;SDS011;40985;53.180;5.800;2023-08-12T00:21:19;4.43;;;2.72;;
55090;SDS011;40985;53.180;5.800;2023-08-12T00:23:45;4.32;;;2.92;;
55090;SDS011;40985;53.180;5.800;2023-08-12T00:26:12;6.25;;;3.17;;
55090;SDS011;40985;53.180;5.800;2023-08-12T00:28:38;4.40;;;2.53;;
55090;SDS011;40985;53.180;5.800;2023-08-12T00:31:04;6.45;;;3.25;;
55090;SDS011;40985;53.180;5.800;2023-08-12T00:33:30;6.80;;;2.80;;
55090;SDS011;40985;53.180;5.800;2023-08-12T00:35:55;6.30;;;3.03;;
55090;SDS011;40985;53.180;5.800;2023-08-12T00:38:21;5.70;;;3.25;;
55090;SDS011;40985;53.180;5.800;2023-08-12T00:40:47;3.75;;;2.90;;
55090;SDS011;40985;53.180;5.800;2023-08-12T00:43:12;3.80;;;2.75;;
55090;SDS011;40985;53.180;5.800;2023-08-12T00:45:38;9.65;;;3.08;;
55090;SDS011;40985;53.180;5.800;2023-08-12T00:48:04;5.00;;;2.80;;
55090;SDS011;40985;53.180;5.800;2023-08-12T00:50:30;3.92;;;3.20;;
55090;SDS011;40985;53.180;5.800;2023-08-12T00:52:57;5.18;;;3.13;;
55090;SDS011;40985;53.180;5.800;2023-08-12T00:55:24;6.60;;;3.22;;
55090;SDS011;40985;53.180;5.800;2023-08-12T00:57:50;6.03;;;3.30;;
55090;SDS011;40985;53.180;5.800;2023-08-12T01:00:16;6.78;;;2.53;;
55090;SDS011;40985;53.180;5.800;2023-08-12T01:02:45;5.40;;;2.97;;
55090;SDS011;40985;53.180;5.800;2023-08-12T01:05:16;5.75;;;2.95;;
55090;SDS011;40985;53.180;5.800;2023-08-12T01:07:42;6.78;;;3.17;;
55090;SDS011;40985;53.180;5.800;2023-08-12T01:10:10;7.00;;;3.15;;
55090;SDS011;40985;53.180;5.800;2023-08-12T01:15:49;5.95;;;2.70;;
55090;SDS011;40985;53.180;5.800;2023-08-12T01:18:19;3.85;;;2.67;;
55090;SDS011;40985;53.180;5.800;2023-08-12T01:20:45;4.00;;;2.17;;
55090;SDS011;40985;53.180;5.800;2023-08-12T01:23:13;3.30;;;2.85;;
55090;SDS011;40985;53.180;5.800;2023-08-12T01:25:39;7.68;;;3.03;;
55090;SDS011;40985;53.180;5.800;2023-08-12T01:28:06;5.18;;;2.35;;
55090;SDS011;40985;53.180;5.800;2023-08-12T01:30:33;7.45;;;3.40;;
55090;SDS011;40985;53.180;5.800;2023-08-12T01:33:08;3.78;;;3.03;;
55090;SDS011;40985;53.180;5.800;2023-08-12T01:35:39;6.07;;;3.30;;
55090;SDS011;40985;53.180;5.800;2023-08-12T01:38:08;5.70;;;3.53;;
55090;SDS011;40985;53.180;5.800;2023-08-12T01:40:35;6.93;;;3.67;;
55090;SDS011;40985;53.180;5.800;2023-08-12T01:43:02;5.95;;;3.78;;
55090;SDS011;40985;53.180;5.800;2023-08-12T01:45:32;5.68;;;4.00;;
55090;SDS011;40985;53.180;5.800;2023-08-12T01:47:58;5.40;;;4.00;;
55090;SDS011;40985;53.180;5.800;2023-08-12T01:50:24;7.15;;;4.60;;
55090;SDS011;40985;53.180;5.800;2023-08-12T01:52:50;6.03;;;4.43;;
55090;SDS011;40985;53.180;5.800;2023-08-12T01:55:16;7.07;;;4.30;;
55090;SDS011;40985;53.180;5.800;2023-08-12T01:57:42;8.48;;;5.60;;
55090;SDS011;40985;53.180;5.800;2023-08-12T02:00:08;7.93;;;5.97;;
55090;SDS011;40985;53.180;5.800;2023-08-12T02:02:34;6.07;;;5.13;;
55090;SDS011;40985;53.180;5.800;2023-08-12T02:04:59;8.13;;;5.13;;
55090;SDS011;40985;53.180;5.800;2023-08-12T02:07:25;8.07;;;5.63;;
55090;SDS011;40985;53.180;5.800;2023-08-12T02:09:51;7.70;;;6.25;;
55090;SDS011;40985;53.180;5.800;2023-08-12T02:12:16;7.93;;;5.93;;
55090;SDS011;40985;53.180;5.800;2023-08-12T02:14:42;6.53;;;5.68;;
55090;SDS011;40985;53.180;5.800;2023-08-12T02:17:08;6.97;;;6.10;;
55090;SDS011;40985;53.180;5.800;2023-08-12T02:19:34;7.93;;;5.53;;
55090;SDS011;40985;53.180;5.800;2023-08-12T02:22:01;7.70;;;5.50;;
55090;SDS011;40985;53.180;5.800;2023-08-12T02:24:28;8.70;;;5.85;;
55090;SDS011;40985;53.180;5.800;2023-08-12T02:26:54;9.65;;;5.18;;
55090;SDS011;40985;53.180;5.800;2023-08-12T02:29:20;7.57;;;5.50;;
55090;SDS011;40985;53.180;5.800;2023-08-12T02:31:46;6.50;;;5.80;;
55090;SDS011;40985;53.180;5.800;2023-08-12T02:34:11;11.40;;;5.80;;
55090;SDS011;40985;53.180;5.800;2023-08-12T02:36:37;8.85;;;5.97;;
55090;SDS011;40985;53.180;5.800;2023-08-12T02:39:03;11.57;;;6.93;;
55090;SDS011;40985;53.180;5.800;2023-08-12T02:41:30;8.73;;;6.47;;
55090;SDS011;40985;53.180;5.800;2023-08-12T02:43:55;8.75;;;6.18;;
55090;SDS011;40985;53.180;5.800;2023-08-12T02:46:21;10.95;;;6.95;;
55090;SDS011;40985;53.180;5.800;2023-08-12T02:48:47;10.77;;;6.60;;
55090;SDS011;40985;53.180;5.800;2023-08-12T02:51:13;9.02;;;6.32;;
55090;SDS011;40985;53.180;5.800;2023-08-12T02:53:38;8.57;;;5.45;;
55090;SDS011;40985;53.180;5.800;2023-08-12T02:56:04;6.65;;;5.68;;
55090;SDS011;40985;53.180;5.800;2023-08-12T02:58:30;7.70;;;5.90;;
55090;SDS011;40985;53.180;5.800;2023-08-12T03:00:56;7.93;;;6.43;;
55090;SDS011;40985;53.180;5.800;2023-08-12T03:03:21;7.50;;;5.15;;
55090;SDS011;40985;53.180;5.800;2023-08-12T03:05:48;8.77;;;6.10;;
55090;SDS011;40985;53.180;5.800;2023-08-12T03:08:14;9.43;;;5.70;;
55090;SDS011;40985;53.180;5.800;2023-08-12T03:10:40;7.82;;;5.40;;
55090;SDS011;40985;53.180;5.800;2023-08-12T03:13:06;12.23;;;6.20;;
55090;SDS011;40985;53.180;5.800;2023-08-12T03:15:32;9.68;;;5.75;;
55090;SDS011;40985;53.180;5.800;2023-08-12T03:17:57;9.15;;;5.35;;
55090;SDS011;40985;53.180;5.800;2023-08-12T03:20:23;6.95;;;5.45;;
55090;SDS011;40985;53.180;5.800;2023-08-12T03:22:49;8.88;;;5.43;;
55090;SDS011;40985;53.180;5.800;2023-08-12T03:25:14;6.53;;;5.93;;
55090;SDS011;40985;53.180;5.800;2023-08-12T03:27:40;8.40;;;6.35;;
55090;SDS011;40985;53.180;5.800;2023-08-12T03:30:07;9.30;;;6.25;;
55090;SDS011;40985;53.180;5.800;2023-08-12T03:32:33;7.03;;;6.22;;
55090;SDS011;40985;53.180;5.800;2023-08-12T03:34:59;11.05;;;6.93;;
55090;SDS011;40985;53.180;5.800;2023-08-12T03:37:25;9.48;;;6.43;;
55090;SDS011;40985;53.180;5.800;2023-08-12T03:39:51;9.25;;;6.28;;
55090;SDS011;40985;53.180;5.800;2023-08-12T03:42:16;6.97;;;6.28;;
55090;SDS011;40985;53.180;5.800;2023-08-12T03:44:43;8.93;;;6.78;;
55090;SDS011;40985;53.180;5.800;2023-08-12T03:47:09;10.63;;;6.68;;
55090;SDS011;40985;53.180;5.800;2023-08-12T03:49:35;12.32;;;6.68;;
55090;SDS011;40985;53.180;5.800;2023-08-12T03:52:01;8.40;;;6.78;;
55090;SDS011;40985;53.180;5.800;2023-08-12T03:54:27;10.90;;;6.50;;
55090;SDS011;40985;53.180;5.800;2023-08-12T03:56:53;13.38;;;7.63;;
55090;SDS011;40985;53.180;5.800;2023-08-12T03:59:19;11.30;;;6.80;;
55090;SDS011;40985;53.180;5.800;2023-08-12T04:01:44;13.63;;;7.63;;
55090;SDS011;40985;53.180;5.800;2023-08-12T04:04:10;12.80;;;8.18;;
55090;SDS011;40985;53.180;5.800;2023-08-12T04:06:36;11.18;;;7.35;;
55090;SDS011;40985;53.180;5.800;2023-08-12T04:09:02;10.13;;;7.30;;
55090;SDS011;40985;53.180;5.800;2023-08-12T04:11:29;13.93;;;7.10;;
55090;SDS011;40985;53.180;5.800;2023-08-12T04:13:54;7.63;;;6.07;;
55090;SDS011;40985;53.180;5.800;2023-08-12T04:16:20;13.05;;;7.05;;
55090;SDS011;40985;53.180;5.800;2023-08-12T04:18:47;8.43;;;6.60;;
55090;SDS011;40985;53.180;5.800;2023-08-12T04:21:13;10.65;;;6.43;;
55090;SDS011;40985;53.180;5.800;2023-08-12T04:23:39;7.50;;;6.18;;
55090;SDS011;40985;53.180;5.800;2023-08-12T04:26:05;9.23;;;6.03;;
55090;SDS011;40985;53.180;5.800;2023-08-12T04:28:30;7.18;;;6.35;;
55090;SDS011;40985;53.180;5.800;2023-08-12T04:30:56;10.13;;;6.30;;
55090;SDS011;40985;53.180;5.800;2023-08-12T04:33:22;9.63;;;6.00;;
55090;SDS011;40985;53.180;5.800;2023-08-12T04:35:48;11.90;;;6.40;;
55090;SDS011;40985;53.180;5.800;2023-08-12T04:38:14;7.80;;;6.47;;
55090;SDS011;40985;53.180;5.800;2023-08-12T04:40:40;11.93;;;7.32;;
55090;SDS011;40985;53.180;5.800;2023-08-12T04:43:09;7.45;;;6.65;;
55090;SDS011;40985;53.180;5.800;2023-08-12T04:45:36;9.90;;;6.15;;
55090;SDS011;40985;53.180;5.800;2023-08-12T04:48:03;8.85;;;6.15;;
55090;SDS011;40985;53.180;5.800;2023-08-12T04:50:30;8.15;;;6.25;;
55090;SDS011;40985;53.180;5.800;2023-08-12T04:52:56;11.25;;;6.60;;
55090;SDS011;40985;53.180;5.800;2023-08-12T04:55:22;10.55;;;6.45;;
55090;SDS011;40985;53.180;5.800;2023-08-12T04:57:50;10.32;;;6.03;;
55090;SDS011;40985;53.180;5.800;2023-08-12T05:00:15;8.63;;;6.55;;
55090;SDS011;40985;53.180;5.800;2023-08-12T05:02:42;9.45;;;6.30;;
55090;SDS011;40985;53.180;5.800;2023-08-12T05:05:08;12.85;;;6.70;;
55090;SDS011;40985;53.180;5.800;2023-08-12T05:07:34;8.63;;;6.70;;
55090;SDS011;40985;53.180;5.800;2023-08-12T05:09:59;10.32;;;5.97;;
55090;SDS011;40985;53.180;5.800;2023-08-12T05:12:26;9.73;;;5.93;;
55090;SDS011;40985;53.180;5.800;2023-08-12T05:14:51;12.38;;;6.75;;
55090;SDS011;40985;53.180;5.800;2023-08-12T05:17:17;9.82;;;5.80;;
55090;SDS011;40985;53.180;5.800;2023-08-12T05:19:43;8.65;;;6.32;;
55090;SDS011;40985;53.180;5.800;2023-08-12T05:22:08;8.98;;;5.85;;
55090;SDS011;40985;53.180;5.800;2023-08-12T05:24:34;11.85;;;6.47;;
55090;SDS011;40985;53.180;5.800;2023-08-12T05:27:00;9.90;;;5.38;;
55090;SDS011;40985;53.180;5.800;2023-08-12T05:29:25;11.15;;;6.53;;
55090;SDS011;40985;53.180;5.800;2023-08-12T05:31:51;8.93;;;6.35;;
55090;SDS011;40985;53.180;5.800;2023-08-12T05:34:18;11.00;;;6.63;;
55090;SDS011;40985;53.180;5.800;2023-08-12T05:36:43;8.95;;;5.78;;
55090;SDS011;40985;53.180;5.800;2023-08-12T05:39:09;9.63;;;6.18;;
55090;SDS011;40985;53.180;5.800;2023-08-12T05:41:35;15.98;;;6.68;;
55090;SDS011;40985;53.180;5.800;2023-08-12T05:44:01;11.13;;;6.63;;
55090;SDS011;40985;53.180;5.800;2023-08-12T05:46:26;9.98;;;6.43;;
55090;SDS011;40985;53.180;5.800;2023-08-12T05:48:52;8.90;;;6.22;;
55090;SDS011;40985;53.180;5.800;2023-08-12T05:51:17;8.48;;;6.22;;
55090;SDS011;40985;53.180;5.800;2023-08-12T05:53:43;11.75;;;6.93;;
55090;SDS011;40985;53.180;5.800;2023-08-12T05:56:09;12.98;;;7.65;;
55090;SDS011;40985;53.180;5.800;2023-08-12T05:58:35;8.77;;;6.72;;
55090;SDS011;40985;53.180;5.800;2023-08-12T06:01:00;10.93;;;7.13;;
55090;SDS011;40985;53.180;5.800;2023-08-12T06:03:27;13.63;;;7.93;;
55090;SDS011;40985;53.180;5.800;2023-08-12T06:05:52;12.90;;;7.82;;
55090;SDS011;40985;53.180;5.800;2023-08-12T06:08:18;11.15;;;7.32;;
55090;SDS011;40985;53.180;5.800;2023-08-12T06:10:44;14.35;;;8.18;;
55090;SDS011;40985;53.180;5.800;2023-08-12T06:13:09;13.77;;;8.30;;
55090;SDS011;40985;53.180;5.800;2023-08-12T06:15:35;15.10;;;8.40;;
55090;SDS011;40985;53.180;5.800;2023-08-12T06:18:01;11.70;;;8.48;;
55090;SDS011;40985;53.180;5.800;2023-08-12T06:20:27;15.73;;;8.93;;
55090;SDS011;40985;53.180;5.800;2023-08-12T06:22:53;12.38;;;8.93;;
55090;SDS011;40985;53.180;5.800;2023-08-12T06:25:19;12.45;;;8.23;;
55090;SDS011;40985;53.180;5.800;2023-08-12T06:27:45;13.68;;;8.93;;
55090;SDS011;40985;53.180;5.800;2023-08-12T06:30:11;13.20;;;8.95;;
55090;SDS011;40985;53.180;5.800;2023-08-12T06:32:38;11.07;;;8.50;;
55090;SDS011;40985;53.180;5.800;2023-08-12T06:35:04;16.38;;;9.77;;
55090;SDS011;40985;53.180;5.800;2023-08-12T06:37:30;12.15;;;8.68;;
55090;SDS011;40985;53.180;5.800;2023-08-12T06:39:55;13.82;;;9.02;;
55090;SDS011;40985;53.180;5.800;2023-08-12T06:42:21;13.50;;;8.48;;
55090;SDS011;40985;53.180;5.800;2023-08-12T06:44:53;15.02;;;9.05;;
55090;SDS011;40985;53.180;5.800;2023-08-12T06:47:22;17.13;;;9.60;;
55090;SDS011;40985;53.180;5.800;2023-08-12T06:49:48;12.65;;;9.18;;
55090;SDS011;40985;53.180;5.800;2023-08-12T06:52:14;16.45;;;8.57;;
55090;SDS011;40985;53.180;5.800;2023-08-12T06:54:41;14.88;;;10.18;;
55090;SDS011;40985;53.180;5.800;2023-08-12T06:57:06;14.68;;;10.25;;
55090;SDS011;40985;53.180;5.800;2023-08-12T06:59:32;11.55;;;9.82;;
55090;SDS011;40985;53.180;5.800;2023-08-12T07:01:58;15.88;;;10.00;;
55090;SDS011;40985;53.180;5.800;2023-08-12T07:04:24;16.27;;;10.48;;
55090;SDS011;40985;53.180;5.800;2023-08-12T07:06:50;17.50;;;11.07;;
55090;SDS011;40985;53.180;5.800;2023-08-12T07:09:16;16.60;;;9.98;;
55090;SDS011;40985;53.180;5.800;2023-08-12T07:11:42;19.10;;;10.32;;
55090;SDS011;40985;53.180;5.800;2023-08-12T07:14:07;15.45;;;9.88;;
55090;SDS011;40985;53.180;5.800;2023-08-12T07:16:33;16.98;;;10.05;;
55090;SDS011;40985;53.180;5.800;2023-08-12T07:18:59;17.67;;;10.23;;
55090;SDS011;40985;53.180;5.800;2023-08-12T07:21:24;16.75;;;11.63;;
55090;SDS011;40985;53.180;5.800;2023-08-12T07:23:50;12.15;;;10.55;;
55090;SDS011;40985;53.180;5.800;2023-08-12T07:26:15;18.17;;;10.63;;
55090;SDS011;40985;53.180;5.800;2023-08-12T07:28:41;14.07;;;10.05;;
55090;SDS011;40985;53.180;5.800;2023-08-12T07:31:07;16.65;;;11.75;;
55090;SDS011;40985;53.180;5.800;2023-08-12T07:33:33;16.38;;;11.63;;
55090;SDS011;40985;53.180;5.800;2023-08-12T07:35:59;17.67;;;12.32;;
55090;SDS011;40985;53.180;5.800;2023-08-12T07:38:25;18.13;;;12.07;;
55090;SDS011;40985;53.180;5.800;2023-08-12T07:40:50;21.65;;;12.02;;
55090;SDS011;40985;53.180;5.800;2023-08-12T07:43:16;16.80;;;12.20;;
55090;SDS011;40985;53.180;5.800;2023-08-12T07:45:42;21.98;;;14.07;;
55090;SDS011;40985;53.180;5.800;2023-08-12T07:48:07;21.35;;;13.27;;
55090;SDS011;40985;53.180;5.800;2023-08-12T07:50:33;19.73;;;13.20;;
55090;SDS011;40985;53.180;5.800;2023-08-12T07:52:59;21.60;;;13.93;;
55090;SDS011;40985;53.180;5.800;2023-08-12T07:55:26;19.23;;;12.60;;
55090;SDS011;40985;53.180;5.800;2023-08-12T07:57:52;19.52;;;13.85;;
55090;SDS011;40985;53.180;5.800;2023-08-12T08:00:18;21.00;;;14.02;;
55090;SDS011;40985;53.180;5.800;2023-08-12T08:02:44;18.42;;;13.07;;
55090;SDS011;40985;53.180;5.800;2023-08-12T08:05:10;20.30;;;13.57;;
55090;SDS011;40985;53.180;5.800;2023-08-12T08:07:36;16.98;;;14.07;;
55090;SDS011;40985;53.180;5.800;2023-08-12T08:10:02;18.90;;;13.32;;
55090;SDS011;40985;53.180;5.800;2023-08-12T08:12:28;21.45;;;14.57;;
55090;SDS011;40985;53.180;5.800;2023-08-12T08:14:53;19.17;;;13.40;;
55090;SDS011;40985;53.180;5.800;2023-08-12T08:17:19;23.15;;;13.60;;
55090;SDS011;40985;53.180;5.800;2023-08-12T08:19:45;20.30;;;13.57;;
55090;SDS011;40985;53.180;5.800;2023-08-12T08:22:10;25.42;;;15.05;;
55090;SDS011;40985;53.180;5.800;2023-08-12T08:24:37;20.13;;;14.18;;
55090;SDS011;40985;53.180;5.800;2023-08-12T08:27:03;22.80;;;15.02;;
55090;SDS011;40985;53.180;5.800;2023-08-12T08:29:29;24.50;;;14.75;;
55090;SDS011;40985;53.180;5.800;2023-08-12T08:31:55;31.95;;;16.08;;
55090;SDS011;40985;53.180;5.800;2023-08-12T08:34:21;31.13;;;15.85;;
55090;SDS011;40985;53.180;5.800;2023-08-12T08:36:46;19.25;;;14.27;;
55090;SDS011;40985;53.180;5.800;2023-08-12T08:39:12;25.90;;;14.90;;
55090;SDS011;40985;53.180;5.800;2023-08-12T08:41:38;23.45;;;13.80;;
55090;SDS011;40985;53.180;5.800;2023-08-12T08:44:06;25.30;;;14.52;;
55090;SDS011;40985;53.180;5.800;2023-08-12T08:46:33;22.92;;;14.68;;
55090;SDS011;40985;53.180;5.800;2023-08-12T08:48:59;17.85;;;14.30;;
55090;SDS011;40985;53.180;5.800;2023-08-12T08:51:29;20.58;;;13.63;;
55090;SDS011;40985;53.180;5.800;2023-08-12T08:53:56;19.00;;;13.55;;
55090;SDS011;40985;53.180;5.800;2023-08-12T08:56:23;16.48;;;12.82;;
55090;SDS011;40985;53.180;5.800;2023-08-12T08:58:49;15.52;;;13.00;;
55090;SDS011;40985;53.180;5.800;2023-08-12T09:01:15;17.58;;;12.50;;
55090;SDS011;40985;53.180;5.800;2023-08-12T09:03:45;14.65;;;11.85;;
55090;SDS011;40985;53.180;5.800;2023-08-12T09:06:12;20.25;;;13.50;;
55090;SDS011;40985;53.180;5.800;2023-08-12T09:08:38;23.27;;;14.82;;
55090;SDS011;40985;53.180;5.800;2023-08-12T09:11:08;18.60;;;15.15;;
55090;SDS011;40985;53.180;5.800;2023-08-12T09:13:36;24.17;;;15.38;;
55090;SDS011;40985;53.180;5.800;2023-08-12T09:16:01;21.98;;;15.43;;
55090;SDS011;40985;53.180;5.800;2023-08-12T09:18:29;26.40;;;17.67;;
55090;SDS011;40985;53.180;5.800;2023-08-12T09:20:55;22.23;;;16.73;;
55090;SDS011;40985;53.180;5.800;2023-08-12T09:23:21;26.40;;;17.60;;
55090;SDS011;40985;53.180;5.800;2023-08-12T09:25:47;23.50;;;17.45;;
55090;SDS011;40985;53.180;5.800;2023-08-12T09:28:14;22.33;;;16.08;;
55090;SDS011;40985;53.180;5.800;2023-08-12T09:30:40;22.08;;;15.68;;
55090;SDS011;40985;53.180;5.800;2023-08-12T09:33:07;17.83;;;14.68;;
55090;SDS011;40985;53.180;5.800;2023-08-12T09:35:34;22.77;;;16.80;;
55090;SDS011;40985;53.180;5.800;2023-08-12T09:38:11;18.52;;;15.30;;
55090;SDS011;40985;53.180;5.800;2023-08-12T09:40:38;29.30;;;17.13;;
55090;SDS011;40985;53.180;5.800;2023-08-12T09:43:04;13.85;;;6.82;;
55090;SDS011;40985;53.180;5.800;2023-08-12T09:45:34;9.30;;;5.55;;
55090;SDS011;40985;53.180;5.800;2023-08-12T09:48:00;9.38;;;4.13;;
55090;SDS011;40985;53.180;5.800;2023-08-12T09:50:26;9.13;;;3.38;;
55090;SDS011;40985;53.180;5.800;2023-08-12T09:52:53;6.78;;;2.58;;
55090;SDS011;40985;53.180;5.800;2023-08-12T09:55:21;7.03;;;1.65;;
55090;SDS011;40985;53.180;5.800;2023-08-12T09:57:48;8.02;;;1.00;;
55090;SDS011;40985;53.180;5.800;2023-08-12T10:00:19;6.53;;;0.77;;
55090;SDS011;40985;53.180;5.800;2023-08-12T10:02:47;3.50;;;0.88;;
55090;SDS011;40985;53.180;5.800;2023-08-12T10:05:24;7.25;;;1.17;;
55090;SDS011;40985;53.180;5.800;2023-08-12T10:07:56;8.65;;;1.65;;
55090;SDS011;40985;53.180;5.800;2023-08-12T10:10:23;6.13;;;1.55;;
55090;SDS011;40985;53.180;5.800;2023-08-12T10:12:50;3.30;;;1.13;;
55090;SDS011;40985;53.180;5.800;2023-08-12T10:15:16;4.78;;;0.63;;
55090;SDS011;40985;53.180;5.800;2023-08-12T10:17:42;5.75;;;0.90;;
55090;SDS011;40985;53.180;5.800;2023-08-12T10:20:11;5.40;;;0.90;;
55090;SDS011;40985;53.180;5.800;2023-08-12T10:22:38;3.55;;;0.60;;
55090;SDS011;40985;53.180;5.800;2023-08-12T10:25:05;5.82;;;0.80;;
55090;SDS011;40985;53.180;5.800;2023-08-12T10:27:33;5.40;;;0.90;;
55090;SDS011;40985;53.180;5.800;2023-08-12T10:29:59;5.68;;;0.40;;
55090;SDS011;40985;53.180;5.800;2023-08-12T10:32:30;2.42;;;0.50;;
55090;SDS011;40985;53.180;5.800;2023-08-12T10:34:56;2.78;;;0.50;;
55090;SDS011;40985;53.180;5.800;2023-08-12T10:37:24;4.00;;;0.65;;
55090;SDS011;40985;53.180;5.800;2023-08-12T10:39:53;3.78;;;0.52;;
55090;SDS011;40985;53.180;5.800;2023-08-12T10:45:12;6.55;;;0.63;;
55090;SDS011;40985;53.180;5.800;2023-08-12T10:47:42;4.88;;;0.50;;
55090;SDS011;40985;53.180;5.800;2023-08-12T10:50:20;8.25;;;1.33;;
55090;SDS011;40985;53.180;5.800;2023-08-12T10:52:47;3.85;;;0.88;;
55090;SDS011;40985;53.180;5.800;2023-08-12T10:55:19;5.72;;;0.95;;
55090;SDS011;40985;53.180;5.800;2023-08-12T10:57:46;5.28;;;1.20;;
55090;SDS011;40985;53.180;5.800;2023-08-12T11:00:45;10.85;;;1.90;;
55090;SDS011;40985;53.180;5.800;2023-08-12T11:03:06;6.60;;;1.25;;
55090;SDS011;40985;53.180;5.800;2023-08-12T11:05:38;8.07;;;1.35;;
55090;SDS011;40985;53.180;5.800;2023-08-12T11:08:03;7.00;;;1.23;;
55090;SDS011;40985;53.180;5.800;2023-08-12T11:10:32;7.10;;;1.98;;
55090;SDS011;40985;53.180;5.800;2023-08-12T11:12:59;5.85;;;1.15;;
55090;SDS011;40985;53.180;5.800;2023-08-12T11:15:29;10.77;;;1.75;;
55090;SDS011;40985;53.180;5.800;2023-08-12T11:18:02;4.80;;;1.00;;
55090;SDS011;40985;53.180;5.800;2023-08-12T11:20:33;7.15;;;1.45;;
55090;SDS011;40985;53.180;5.800;2023-08-12T11:22:59;7.45;;;1.52;;
55090;SDS011;40985;53.180;5.800;2023-08-12T11:25:27;7.43;;;1.40;;
55090;SDS011;40985;53.180;5.800;2023-08-12T11:27:54;7.68;;;1.80;;
55090;SDS011;40985;53.180;5.800;2023-08-12T11:30:20;7.15;;;1.17;;
55090;SDS011;40985;53.180;5.800;2023-08-12T11:32:54;2.58;;;0.60;;
55090;SDS011;40985;53.180;5.800;2023-08-12T11:35:21;4.85;;;0.60;;
55090;SDS011;40985;53.180;5.800;2023-08-12T11:37:49;2.00;;;0.40;;
55090;SDS011;40985;53.180;5.800;2023-08-12T11:40:18;5.88;;;0.82;;
55090;SDS011;40985;53.180;5.800;2023-08-12T11:42:45;2.28;;;0.68;;
55090;SDS011;40985;53.180;5.800;2023-08-12T11:45:14;5.32;;;0.90;;
55090;SDS011;40985;53.180;5.800;2023-08-12T11:47:47;6.00;;;1.02;;
55090;SDS011;40985;53.180;5.800;2023-08-12T11:50:18;3.60;;;1.15;;
55090;SDS011;40985;53.180;5.800;2023-08-12T11:52:45;7.88;;;1.75;;
55090;SDS011;40985;53.180;5.800;2023-08-12T11:55:11;7.00;;;1.50;;
55090;SDS011;40985;53.180;5.800;2023-08-12T11:57:41;6.85;;;1.52;;
55090;SDS011;40985;53.180;5.800;2023-08-12T12:00:08;5.50;;;1.23;;
55090;SDS011;40985;53.180;5.800;2023-08-12T12:02:44;5.22;;;1.58;;
55090;SDS011;40985;53.180;5.800;2023-08-12T12:05:15;8.18;;;1.65;;
55090;SDS011;40985;53.180;5.800;2023-08-12T12:07:41;5.95;;;1.98;;
55090;SDS011;40985;53.180;5.800;2023-08-12T12:10:11;8.57;;;1.77;;
55090;SDS011;40985;53.180;5.800;2023-08-12T12:12:38;10.57;;;2.13;;
55090;SDS011;40985;53.180;5.800;2023-08-12T12:15:04;9.55;;;2.45;;
55090;SDS011;40985;53.180;5.800;2023-08-12T12:17:31;9.50;;;1.45;;
55090;SDS011;40985;53.180;5.800;2023-08-12T12:19:58;12.38;;;1.77;;
55090;SDS011;40985;53.180;5.800;2023-08-12T12:22:28;7.70;;;1.17;;
55090;SDS011;40985;53.180;5.800;2023-08-12T12:24:59;9.38;;;1.83;;
55090;SDS011;40985;53.180;5.800;2023-08-12T12:27:25;5.72;;;0.93;;
55090;SDS011;40985;53.180;5.800;2023-08-12T12:29:51;6.72;;;1.13;;
55090;SDS011;40985;53.180;5.800;2023-08-12T12:32:18;8.52;;;1.15;;
55090;SDS011;40985;53.180;5.800;2023-08-12T12:34:44;7.97;;;1.60;;
55090;SDS011;40985;53.180;5.800;2023-08-12T12:37:11;8.23;;;1.52;;
55090;SDS011;40985;53.180;5.800;2023-08-12T12:39:38;8.75;;;1.15;;
55090;SDS011;40985;53.180;5.800;2023-08-12T12:42:04;7.53;;;1.17;;
55090;SDS011;40985;53.180;5.800;2023-08-12T12:44:30;6.82;;;0.77;;
55090;SDS011;40985;53.180;5.800;2023-08-12T12:46:56;10.65;;;0.90;;
55090;SDS011;40985;53.180;5.800;2023-08-12T12:49:22;9.45;;;1.30;;
55090;SDS011;40985;53.180;5.800;2023-08-12T12:51:48;9.25;;;1.40;;
55090;SDS011;40985;53.180;5.800;2023-08-12T12:54:14;8.50;;;1.40;;
55090;SDS011;40985;53.180;5.800;2023-08-12T12:56:39;9.73;;;1.60;;
55090;SDS011;40985;53.180;5.800;2023-08-12T12:59:05;3.35;;;0.80;;
55090;SDS011;40985;53.180;5.800;2023-08-12T13:01:31;7.60;;;1.20;;
55090;SDS011;40985;53.180;5.800;2023-08-12T13:03:56;5.45;;;0.73;;
55090;SDS011;40985;53.180;5.800;2023-08-12T13:06:22;11.10;;;1.02;;
55090;SDS011;40985;53.180;5.800;2023-08-12T13:08:48;7.68;;;0.88;;
55090;SDS011;40985;53.180;5.800;2023-08-12T13:11:15;6.20;;;0.82;;
55090;SDS011;40985;53.180;5.800;2023-08-12T13:13:40;6.28;;;0.98;;
55090;SDS011;40985;53.180;5.800;2023-08-12T13:16:06;6.43;;;0.55;;
55090;SDS011;40985;53.180;5.800;2023-08-12T13:18:33;4.78;;;0.57;;
55090;SDS011;40985;53.180;5.800;2023-08-12T13:20:59;6.18;;;0.63;;
55090;SDS011;40985;53.180;5.800;2023-08-12T13:23:25;6.35;;;0.60;;
55090;SDS011;40985;53.180;5.800;2023-08-12T13:25:51;6.90;;;0.88;;
55090;SDS011;40985;53.180;5.800;2023-08-12T13:28:17;5.22;;;0.63;;
55090;SDS011;40985;53.180;5.800;2023-08-12T13:30:43;6.63;;;1.08;;
55090;SDS011;40985;53.180;5.800;2023-08-12T13:33:09;7.53;;;0.88;;
55090;SDS011;40985;53.180;5.800;2023-08-12T13:35:35;8.95;;;1.20;;
55090;SDS011;40985;53.180;5.800;2023-08-12T13:38:01;8.45;;;0.70;;
55090;SDS011;40985;53.180;5.800;2023-08-12T13:40:26;10.00;;;1.08;;
55090;SDS011;40985;53.180;5.800;2023-08-12T13:42:52;5.18;;;0.68;;
55090;SDS011;40985;53.180;5.800;2023-08-12T13:45:18;7.72;;;1.00;;
55090;SDS011;40985;53.180;5.800;2023-08-12T13:47:44;4.50;;;0.70;;
55090;SDS011;40985;53.180;5.800;2023-08-12T13:50:10;7.63;;;1.33;;
55090;SDS011;40985;53.180;5.800;2023-08-12T13:52:36;5.55;;;1.02;;
55090;SDS011;40985;53.180;5.800;2023-08-12T13:55:02;9.38;;;1.25;;
55090;SDS011;40985;53.180;5.800;2023-08-12T13:57:28;8.50;;;1.05;;
55090;SDS011;40985;53.180;5.800;2023-08-12T13:59:54;8.77;;;1.20;;
55090;SDS011;40985;53.180;5.800;2023-08-12T14:02:21;5.53;;;0.55;;
55090;SDS011;40985;53.180;5.800;2023-08-12T14:04:46;5.85;;;0.68;;
55090;SDS011;40985;53.180;5.800;2023-08-12T14:07:12;9.82;;;1.20;;
55090;SDS011;40985;53.180;5.800;2023-08-12T14:09:38;6.95;;;0.65;;
55090;SDS011;40985;53.180;5.800;2023-08-12T14:12:03;6.15;;;0.75;;
55090;SDS011;40985;53.180;5.800;2023-08-12T14:14:29;10.43;;;1.65;;
55090;SDS011;40985;53.180;5.800;2023-08-12T14:16:55;6.55;;;0.85;;
55090;SDS011;40985;53.180;5.800;2023-08-12T14:19:21;7.80;;;0.77;;
55090;SDS011;40985;53.180;5.800;2023-08-12T14:21:47;8.63;;;1.73;;
55090;SDS011;40985;53.180;5.800;2023-08-12T14:24:12;9.93;;;1.33;;
55090;SDS011;40985;53.180;5.800;2023-08-12T14:26:39;8.95;;;0.95;;
55090;SDS011;40985;53.180;5.800;2023-08-12T14:29:05;8.52;;;0.93;;
55090;SDS011;40985;53.180;5.800;2023-08-12T14:31:31;9.68;;;0.85;;
55090;SDS011;40985;53.180;5.800;2023-08-12T14:33:58;6.38;;;0.82;;
55090;SDS011;40985;53.180;5.800;2023-08-12T14:36:23;5.90;;;0.80;;
55090;SDS011;40985;53.180;5.800;2023-08-12T14:38:52;9.32;;;1.10;;
55090;SDS011;40985;53.180;5.800;2023-08-12T14:41:18;9.52;;;1.10;;
55090;SDS011;40985;53.180;5.800;2023-08-12T14:43:43;9.73;;;1.10;;